Flight Track Log - Related Links

Times and Time Zones

All times are in EDT time to prevent confusion due to time zone crossing. See the KAP46 flight status page for this flight to view local times or setup timezone preferences in your user account.


Time Position Orientation Groundspeed Altitude Reporting Facility
EDT Latitude Longitude Course Direction KTS MPH feet Rate Location/Type
Sat 11:36:08 AM 42.7522 -73.8208 277° West 126 145 900  Level Boston Center
Sat 11:36:44 AM 42.7544 -73.8450 277° West 108 124 1,400 742 Climbing Boston Center
Sat 11:37:45 AM 42.7453 -73.8828 252° West 104 120 2,100 759 Climbing Boston Center
Sat 11:38:03 AM 42.7542 -73.8872 340° North 105 121 2,400 700 Climbing Boston Center
Sat 11:38:45 AM 42.7725 -73.8978 337° Northwest 104 120 2,800 600 Climbing Boston Center
Sat 11:39:03 AM 42.7822 -73.9000 350° North 105 121 3,000 896 Climbing Boston Center
Sat 11:39:52 AM 42.8069 -73.9094 344° North 114 131 3,800 968 Climbing Boston Center
Sat 11:40:05 AM 42.8114 -73.9106 350° North 106 122 4,000 779 Climbing Boston Center
Sat 11:41:09 AM 42.8447 -73.9222 346° North 110 127 4,800 771 Climbing Boston Center
Sat 11:41:54 AM 42.8686 -73.9364 337° Northwest 119 137 5,400 800 Climbing Boston Center
Sat 11:42:09 AM 42.8753 -73.9378 351° North 117 135 5,600 720 Climbing Boston Center
Sat 11:43:09 AM 42.9108 -73.9544 341° North 128 147 6,300 736 Climbing Boston Center
Sat 11:43:55 AM 42.9372 -73.9714 335° Northwest 135 155 6,900 750 Climbing Boston Center
Sat 11:44:13 AM 42.9475 -73.9758 342° North 132 152 7,100 571 Climbing Boston Center
Sat 11:44:58 AM 42.9731 -73.9867 343° North 135 155 7,500 600 Climbing Boston Center
Sat 11:45:13 AM 42.9844 -73.9894 350° North 133 153 7,700 492 Climbing Boston Center
Sat 11:45:59 AM 43.0114 -73.9997 344° North 145 167 8,000 281 Climbing Boston Center
Sat 11:46:17 AM 43.0244 -74.0044 345° North 147 169 8,000 100 Level Boston Center
Sat 11:46:59 AM 43.0558 -74.0150 346° North 167 192 8,100 100 Climbing Boston Center
Sat 11:47:17 AM 43.0742 -74.0225 343° North 170 196 8,100 -98 Level Boston Center
Sat 11:48:00 AM 43.1056 -74.0381 340° North 180 207 8,000  Descending Boston Center
Sat 11:48:21 AM 43.1208 -74.0458 340° North 179 206 8,100  Climbing Boston Center
Sat 11:49:22 AM 43.1697 -74.0642 345° North 181 208 8,000  Descending Boston Center
Sat 11:50:22 AM 43.2197 -74.0864 342° North 178 205 8,100 397 Climbing Boston Center
Sat 11:51:23 AM 43.2597 -74.1031 343° North 152 175 8,800 480 Climbing Boston Center
Sat 11:52:27 AM 43.3025 -74.1203 344° North 152 175 9,100 144 Climbing Boston Center
Sat 11:53:28 AM 43.3494 -74.1403 343° North 172 198 9,100  Level Boston Center
Sat 11:54:28 AM 43.3972 -74.1592 344° North 174 200 9,100 48 Level Boston Center
Sat 11:55:32 AM 43.4433 -74.1786 343° North 173 199 9,200  Climbing Boston Center
Sat 11:56:33 AM 43.4889 -74.1994 342° North 174 200 9,100 -48 Descending Boston Center
Sat 11:57:36 AM 43.5364 -74.2106 350° North 174 200 9,100  Level Boston Center
Sat 11:58:37 AM 43.5847 -74.2247 348° North 174 200 9,100  Level Boston Center
Sat 11:59:37 AM 43.6325 -74.2400 347° North 174 200 9,100 48 Level Boston Center
Sat 12:00:41 PM 43.6900 -74.2581 347° North 175 201 9,200  Climbing Boston Center
Sat 12:01:43 PM 43.7375 -74.2714 349° North 175 201 9,100  Descending Boston Center
Sat 12:02:43 PM 43.7839 -74.2856 348° North 174 200 9,200 48 Climbing Boston Center
Sat 12:03:47 PM 43.8311 -74.2994 348° North 174 200 9,200  Level Boston Center
Sat 12:04:48 PM 43.8786 -74.3136 348° North 174 200 9,200 -50 Level Boston Center
Sat 12:05:48 PM 43.9258 -74.3292 347° North 174 200 9,100 -98 Descending Boston Center
Sat 12:06:51 PM 43.9736 -74.3447 347° North 175 201 9,000 -48 Descending Boston Center
Sat 12:07:53 PM 44.0294 -74.3611 348° North 174 200 9,000  Level Boston Center
Sat 12:08:53 PM 44.0753 -74.3750 348° North 174 200 9,000  Level Boston Center
Sat 12:09:57 PM 44.1211 -74.3897 347° North 173 199 9,000  Level Boston Center
Sat 12:10:58 PM 44.1667 -74.4039 347° North 172 198 9,000  Level Boston Center
Sat 12:11:59 PM 44.2142 -74.4178 348° North 172 198 9,000  Level Boston Center
Sat 12:13:03 PM 44.2600 -74.4317 348° North 172 198 9,000  Level Boston Center
Sat 12:14:03 PM 44.3167 -74.4494 347° North 172 198 9,000  Level Boston Center
Sat 12:15:04 PM 44.3633 -74.4639 348° North 172 198 9,000  Level Boston Center
Sat 12:16:08 PM 44.4086 -74.4778 348° North 172 198 9,000 48 Level Boston Center
Sat 12:17:08 PM 44.4556 -74.4931 347° North 172 198 9,100 -50 Climbing Boston Center
Sat 12:18:09 PM 44.5008 -74.5078 347° North 172 198 8,900 -384 Descending Boston Center
Sat 12:19:13 PM 44.5497 -74.5242 347° North 173 199 8,300 -528 Descending Boston Center
Sat 12:20:14 PM 44.6011 -74.5422 346° North 181 208 7,800 -645 Descending Boston Center
Sat 12:21:14 PM 44.6628 -74.5603 348° North 186 214 7,000 -677 Descending Boston Center
Sat 12:22:18 PM 44.7111 -74.5753 348° North 186 214 6,400 -629 Descending Boston Center
Sat 12:23:18 PM 44.7597 -74.5914 347° North 183 211 5,700 -629 Descending Boston Center
Sat 12:24:22 PM 44.8061 -74.6053 348° North 178 205 5,100 -629 Descending Boston Center
Sat 12:25:22 PM 44.8539 -74.6214 347° North 178 205 4,400 -694 Descending Boston Center
Sat 12:26:23 PM 44.9019 -74.6372 347° North 178 205 3,700 -658 Descending Boston Center
Sat 12:26:35 PM 44.9111 -74.6400 348° North 178 205 3,600 -500 Descending Boston Center

Login

Don't have an account? Register now (free) for customized features, flight alerts, and more!